sensor_id;sensor_type;location;lat;lon;timestamp;temperature;humidity
13433;DHT22;6789;47.678;9.158;2022-08-19T00:04:40;18.60;99.90
13433;DHT22;6789;47.678;9.158;2022-08-19T00:09:32;18.60;99.90
13433;DHT22;6789;47.678;9.158;2022-08-19T00:14:25;18.50;99.90
13433;DHT22;6789;47.678;9.158;2022-08-19T00:19:36;18.50;99.90
13433;DHT22;6789;47.678;9.158;2022-08-19T00:24:44;18.50;99.90
13433;DHT22;6789;47.678;9.158;2022-08-19T00:29:41;18.60;99.90
13433;DHT22;6789;47.678;9.158;2022-08-19T00:34:33;18.60;99.90
13433;DHT22;6789;47.678;9.158;2022-08-19T00:40:03;18.70;99.90
13433;DHT22;6789;47.678;9.158;2022-08-19T00:45:18;18.60;99.90
13433;DHT22;6789;47.678;9.158;2022-08-19T00:50:32;18.60;99.90
13433;DHT22;6789;47.678;9.158;2022-08-19T00:56:12;18.70;99.90
13433;DHT22;6789;47.678;9.158;2022-08-19T01:01:47;18.70;99.90
13433;DHT22;6789;47.678;9.158;2022-08-19T01:14:36;18.70;99.90
13433;DHT22;6789;47.678;9.158;2022-08-19T01:19:40;18.70;99.90
13433;DHT22;6789;47.678;9.158;2022-08-19T01:29:45;18.70;99.90
13433;DHT22;6789;47.678;9.158;2022-08-19T01:35:22;18.70;99.90
13433;DHT22;6789;47.678;9.158;2022-08-19T01:40:17;18.60;99.90
13433;DHT22;6789;47.678;9.158;2022-08-19T01:45:36;18.60;99.90
13433;DHT22;6789;47.678;9.158;2022-08-19T01:50:47;18.60;99.90
13433;DHT22;6789;47.678;9.158;2022-08-19T01:55:42;18.60;99.90
13433;DHT22;6789;47.678;9.158;2022-08-19T02:00:49;18.70;99.90
13433;DHT22;6789;47.678;9.158;2022-08-19T02:05:43;18.60;99.90
13433;DHT22;6789;47.678;9.158;2022-08-19T02:10:51;18.60;99.90
13433;DHT22;6789;47.678;9.158;2022-08-19T02:15:59;18.50;99.90
13433;DHT22;6789;47.678;9.158;2022-08-19T02:21:06;18.60;99.90
13433;DHT22;6789;47.678;9.158;2022-08-19T02:26:16;18.60;99.90
13433;DHT22;6789;47.678;9.158;2022-08-19T02:31:15;18.60;99.90
13433;DHT22;6789;47.678;9.158;2022-08-19T02:36:10;18.70;99.90
13433;DHT22;6789;47.678;9.158;2022-08-19T02:41:10;18.70;99.90
13433;DHT22;6789;47.678;9.158;2022-08-19T02:46:17;18.70;99.90
13433;DHT22;6789;47.678;9.158;2022-08-19T02:51:37;18.70;99.90
13433;DHT22;6789;47.678;9.158;2022-08-19T02:56:48;18.70;99.90
13433;DHT22;6789;47.678;9.158;2022-08-19T03:02:08;18.60;99.90
13433;DHT22;6789;47.678;9.158;2022-08-19T03:07:00;18.70;99.90
13433;DHT22;6789;47.678;9.158;2022-08-19T03:12:08;18.70;99.90
13433;DHT22;6789;47.678;9.158;2022-08-19T03:17:02;18.70;99.90
13433;DHT22;6789;47.678;9.158;2022-08-19T03:21:55;18.70;99.90
13433;DHT22;6789;47.678;9.158;2022-08-19T03:26:52;18.70;99.90
13433;DHT22;6789;47.678;9.158;2022-08-19T03:31:48;18.70;99.90
13433;DHT22;6789;47.678;9.158;2022-08-19T03:36:43;18.70;99.90
13433;DHT22;6789;47.678;9.158;2022-08-19T03:41:39;18.70;99.90
13433;DHT22;6789;47.678;9.158;2022-08-19T03:46:37;18.70;99.90
13433;DHT22;6789;47.678;9.158;2022-08-19T03:51:37;18.70;99.90
13433;DHT22;6789;47.678;9.158;2022-08-19T03:56:45;18.70;99.90
13433;DHT22;6789;47.678;9.158;2022-08-19T04:02:09;18.80;99.90
13433;DHT22;6789;47.678;9.158;2022-08-19T04:07:24;18.80;99.90
13433;DHT22;6789;47.678;9.158;2022-08-19T04:12:36;18.80;99.90
13433;DHT22;6789;47.678;9.158;2022-08-19T04:17:44;18.80;99.90
13433;DHT22;6789;47.678;9.158;2022-08-19T04:22:50;18.90;99.90
13433;DHT22;6789;47.678;9.158;2022-08-19T04:27:56;18.90;99.90
13433;DHT22;6789;47.678;9.158;2022-08-19T04:33:28;18.80;99.90
13433;DHT22;6789;47.678;9.158;2022-08-19T04:38:35;18.80;99.90
13433;DHT22;6789;47.678;9.158;2022-08-19T04:43:41;18.60;99.90
13433;DHT22;6789;47.678;9.158;2022-08-19T04:48:54;18.70;99.90
13433;DHT22;6789;47.678;9.158;2022-08-19T04:54:03;18.70;99.90
13433;DHT22;6789;47.678;9.158;2022-08-19T04:59:17;18.80;99.90
13433;DHT22;6789;47.678;9.158;2022-08-19T05:04:35;18.80;99.90
13433;DHT22;6789;47.678;9.158;2022-08-19T05:10:16;18.70;99.90
13433;DHT22;6789;47.678;9.158;2022-08-19T05:15:34;18.70;99.90
13433;DHT22;6789;47.678;9.158;2022-08-19T05:20:47;18.70;99.90
13433;DHT22;6789;47.678;9.158;2022-08-19T05:26:23;18.60;99.90
13433;DHT22;6789;47.678;9.158;2022-08-19T05:31:32;18.70;99.90
13433;DHT22;6789;47.678;9.158;2022-08-19T05:36:41;18.60;99.90
13433;DHT22;6789;47.678;9.158;2022-08-19T05:42:00;18.50;99.90
13433;DHT22;6789;47.678;9.158;2022-08-19T05:47:34;18.50;99.90
13433;DHT22;6789;47.678;9.158;2022-08-19T05:54:39;18.50;99.90
13433;DHT22;6789;47.678;9.158;2022-08-19T05:59:47;18.60;99.90
13433;DHT22;6789;47.678;9.158;2022-08-19T06:05:26;18.50;99.90
13433;DHT22;6789;47.678;9.158;2022-08-19T06:10:35;18.50;99.90
13433;DHT22;6789;47.678;9.158;2022-08-19T06:16:02;18.60;99.90
13433;DHT22;6789;47.678;9.158;2022-08-19T06:21:10;18.70;99.90
13433;DHT22;6789;47.678;9.158;2022-08-19T06:26:19;18.60;99.90
13433;DHT22;6789;47.678;9.158;2022-08-19T06:31:48;18.70;99.90
13433;DHT22;6789;47.678;9.158;2022-08-19T06:37:07;18.70;99.90
13433;DHT22;6789;47.678;9.158;2022-08-19T06:48:12;18.90;99.90
13433;DHT22;6789;47.678;9.158;2022-08-19T06:59:32;18.90;99.90
13433;DHT22;6789;47.678;9.158;2022-08-19T07:17:09;18.90;99.90
13433;DHT22;6789;47.678;9.158;2022-08-19T07:23:04;19.00;99.90
13433;DHT22;6789;47.678;9.158;2022-08-19T07:28:54;19.00;99.90
13433;DHT22;6789;47.678;9.158;2022-08-19T07:34:06;19.00;99.90
13433;DHT22;6789;47.678;9.158;2022-08-19T07:40:17;18.90;99.90
13433;DHT22;6789;47.678;9.158;2022-08-19T07:50:59;18.90;99.90
13433;DHT22;6789;47.678;9.158;2022-08-19T07:56:10;18.90;99.90
13433;DHT22;6789;47.678;9.158;2022-08-19T09:32:31;18.70;99.90
13433;DHT22;6789;47.678;9.158;2022-08-19T11:03:09;18.60;99.90
13433;DHT22;6789;47.678;9.158;2022-08-19T11:08:45;18.60;99.90
13433;DHT22;6789;47.678;9.158;2022-08-19T11:19:49;18.50;99.90
13433;DHT22;6789;47.678;9.158;2022-08-19T11:24:55;18.50;99.90
13433;DHT22;6789;47.678;9.158;2022-08-19T11:30:02;18.50;99.90
13433;DHT22;6789;47.678;9.158;2022-08-19T12:02:13;18.30;99.90
13433;DHT22;6789;47.678;9.158;2022-08-19T12:07:21;18.30;99.90
13433;DHT22;6789;47.678;9.158;2022-08-19T12:12:28;18.30;99.90
13433;DHT22;6789;47.678;9.158;2022-08-19T12:17:42;18.40;99.90
13433;DHT22;6789;47.678;9.158;2022-08-19T13:21:22;18.90;99.90
13433;DHT22;6789;47.678;9.158;2022-08-19T14:33:10;19.60;99.90
13433;DHT22;6789;47.678;9.158;2022-08-19T14:38:27;19.60;99.90
13433;DHT22;6789;47.678;9.158;2022-08-19T14:49:17;19.50;99.90
13433;DHT22;6789;47.678;9.158;2022-08-19T15:00:29;19.90;99.90
13433;DHT22;6789;47.678;9.158;2022-08-19T15:05:49;20.00;99.90
13433;DHT22;6789;47.678;9.158;2022-08-19T15:40:19;19.70;99.90
13433;DHT22;6789;47.678;9.158;2022-08-19T15:45:44;19.60;99.90
13433;DHT22;6789;47.678;9.158;2022-08-19T15:51:04;19.60;99.90
13433;DHT22;6789;47.678;9.158;2022-08-19T15:56:11;19.50;99.90
13433;DHT22;6789;47.678;9.158;2022-08-19T16:01:32;19.50;99.90
13433;DHT22;6789;47.678;9.158;2022-08-19T16:07:07;19.50;99.90
13433;DHT22;6789;47.678;9.158;2022-08-19T16:12:32;19.50;99.90
13433;DHT22;6789;47.678;9.158;2022-08-19T16:18:42;19.70;99.90
13433;DHT22;6789;47.678;9.158;2022-08-19T16:24:05;19.70;99.90
13433;DHT22;6789;47.678;9.158;2022-08-19T16:29:43;19.70;99.90
13433;DHT22;6789;47.678;9.158;2022-08-19T16:35:14;19.80;99.90
13433;DHT22;6789;47.678;9.158;2022-08-19T16:40:32;19.70;99.90
13433;DHT22;6789;47.678;9.158;2022-08-19T16:46:31;19.70;99.90
13433;DHT22;6789;47.678;9.158;2022-08-19T16:57:49;19.70;99.90
13433;DHT22;6789;47.678;9.158;2022-08-19T17:03:31;19.50;99.90
13433;DHT22;6789;47.678;9.158;2022-08-19T17:09:00;19.50;99.90
13433;DHT22;6789;47.678;9.158;2022-08-19T17:14:55;19.50;99.90
13433;DHT22;6789;47.678;9.158;2022-08-19T17:31:12;19.30;99.90
13433;DHT22;6789;47.678;9.158;2022-08-19T17:42:23;19.20;99.90
13433;DHT22;6789;47.678;9.158;2022-08-19T17:48:00;19.10;99.90
13433;DHT22;6789;47.678;9.158;2022-08-19T17:53:28;19.10;99.90
13433;DHT22;6789;47.678;9.158;2022-08-19T18:04:36;19.20;99.90
13433;DHT22;6789;47.678;9.158;2022-08-19T18:10:28;19.20;99.90
13433;DHT22;6789;47.678;9.158;2022-08-19T18:21:29;19.10;99.90
13433;DHT22;6789;47.678;9.158;2022-08-19T18:33:15;19.00;99.90
13433;DHT22;6789;47.678;9.158;2022-08-19T18:38:23;18.90;99.90
13433;DHT22;6789;47.678;9.158;2022-08-19T18:56:26;18.90;99.90
13433;DHT22;6789;47.678;9.158;2022-08-19T19:13:04;18.90;99.90
13433;DHT22;6789;47.678;9.158;2022-08-19T19:18:10;18.90;99.90
13433;DHT22;6789;47.678;9.158;2022-08-19T19:28:57;18.90;99.90
13433;DHT22;6789;47.678;9.158;2022-08-19T19:34:23;19.00;99.90
13433;DHT22;6789;47.678;9.158;2022-08-19T19:40:00;19.00;99.90
13433;DHT22;6789;47.678;9.158;2022-08-19T19:45:29;19.00;99.90
13433;DHT22;6789;47.678;9.158;2022-08-19T19:51:49;19.00;99.90
13433;DHT22;6789;47.678;9.158;2022-08-19T19:57:23;19.00;99.90
13433;DHT22;6789;47.678;9.158;2022-08-19T20:02:39;19.00;99.90
13433;DHT22;6789;47.678;9.158;2022-08-19T20:07:49;19.00;99.90
13433;DHT22;6789;47.678;9.158;2022-08-19T20:13:17;19.00;99.90
13433;DHT22;6789;47.678;9.158;2022-08-19T20:18:27;18.90;99.90
13433;DHT22;6789;47.678;9.158;2022-08-19T20:23:39;18.90;99.90
13433;DHT22;6789;47.678;9.158;2022-08-19T20:28:56;19.00;99.90
13433;DHT22;6789;47.678;9.158;2022-08-19T21:20:44;18.90;99.90
13433;DHT22;6789;47.678;9.158;2022-08-19T21:49:24;18.90;99.90
13433;DHT22;6789;47.678;9.158;2022-08-19T22:17:22;18.90;99.90
13433;DHT22;6789;47.678;9.158;2022-08-19T22:23:20;18.80;99.90
13433;DHT22;6789;47.678;9.158;2022-08-19T22:35:16;18.80;99.90
13433;DHT22;6789;47.678;9.158;2022-08-19T22:46:22;18.80;99.90
13433;DHT22;6789;47.678;9.158;2022-08-19T22:51:56;18.70;99.90
13433;DHT22;6789;47.678;9.158;2022-08-19T23:03:23;18.70;99.90
13433;DHT22;6789;47.678;9.158;2022-08-19T23:24:03;18.60;99.90
13433;DHT22;6789;47.678;9.158;2022-08-19T23:29:13;18.50;99.90
13433;DHT22;6789;47.678;9.158;2022-08-19T23:40:19;18.60;99.90
13433;DHT22;6789;47.678;9.158;2022-08-19T23:56:55;18.50;99.90
